Time;durP1;ratioP1;P1;durP2;ratioP2;P2;SDS_P1;SDS_P2;PMS_P1;PMS_P2;Temp;Humidity;BMP_temperature;BMP_pressure;BME280_temperature;BME280_humidity;BME280_pressure;Samples;Min_cycle;Max_cycle;Signal;HPM_P1;HPM_P2
2023/02/16 00:05:31;;;;;;;6.95;6.25;;;;;;;1.75;100.00;99206.25;15289427;19;20039;-50
2023/02/16 00:16:35;;;;;;;6.80;6.10;;;;;;;1.69;100.00;99199.47;15285707;19;20098;-53
2023/02/16 00:22:01;;;;;;;8.88;6.82;;;;;;;1.67;100.00;99198.69;15288933;19;20025;-51
2023/02/16 00:27:29;;;;;;;7.07;6.32;;;;;;;1.67;100.00;99188.06;15279566;19;20018;-51
2023/02/16 00:32:54;;;;;;;7.53;6.70;;;;;;;1.69;100.00;99202.13;15285200;19;20077;-52
2023/02/16 00:38:22;;;;;;;7.40;6.70;;;;;;;1.66;100.00;99199.63;15279830;19;20082;-51
2023/02/16 00:43:56;;;;;;;8.00;7.13;;;;;;;1.67;100.00;99196.88;15282560;19;20074;-53
2023/02/16 00:49:23;;;;;;;8.02;7.22;;;;;;;1.65;100.00;99195.25;15277914;19;20342;-51
2023/02/16 00:54:48;;;;;;;8.00;7.20;;;;;;;1.66;100.00;99197.81;15281462;19;20030;-54
2023/02/16 01:00:21;;;;;;;8.23;7.43;;;;;;;1.65;100.00;99196.09;15274445;19;20018;-53
2023/02/16 01:05:45;;;;;;;8.43;7.55;;;;;;;1.64;100.00;99196.19;15285048;19;20040;-50
2023/02/16 01:11:11;;;;;;;9.18;8.18;;;;;;;1.62;100.00;99179.50;15276425;19;20480;-50
2023/02/16 01:16:44;;;;;;;8.23;7.18;;;;;;;1.55;100.00;99186.94;15281197;19;20039;-50
2023/02/16 01:22:12;;;;;;;9.25;7.88;;;;;;;1.49;100.00;99180.16;15281683;19;20006;-50
2023/02/16 01:27:46;;;;;;;9.63;8.50;;;;;;;1.45;100.00;99194.59;15281319;19;20018;-49
2023/02/16 01:33:13;;;;;;;10.10;9.10;;;;;;;1.46;100.00;99196.28;15275338;19;20391;-50
2023/02/16 01:38:39;;;;;;;10.75;9.43;;;;;;;1.51;100.00;99196.03;15277908;19;20026;-48
2023/02/16 01:44:13;;;;;;;9.85;8.85;;;;;;;1.48;100.00;99199.69;15278942;19;20018;-51
2023/02/16 01:49:41;;;;;;;10.77;9.38;;;;;;;1.47;100.00;99205.09;15276826;19;20070;-49
2023/02/16 01:55:13;;;;;;;10.68;9.45;;;;;;;1.44;100.00;99200.84;15280020;19;20023;-51
2023/02/16 02:01:08;;;;;;;10.95;9.43;;;;;;;1.45;100.00;99189.28;15275925;19;20070;-50
2023/02/16 02:06:42;;;;;;;11.20;10.10;;;;;;;1.40;100.00;99187.81;15274120;19;20394;-48
2023/02/16 02:12:15;;;;;;;11.27;10.07;;;;;;;1.39;100.00;99192.25;15278935;19;20028;-52
2023/02/16 02:17:39;;;;;;;11.27;10.13;;;;;;;1.35;100.00;99191.56;15277394;19;20027;-51
2023/02/16 02:23:34;;;;;;;11.02;9.80;;;;;;;1.32;100.00;99190.88;15278139;19;20010;-52
2023/02/16 02:29:15;;;;;;;10.63;9.43;;;;;;;1.19;100.00;99188.88;15274441;19;20094;-51
2023/02/16 02:34:56;;;;;;;10.82;9.73;;;;;;;1.04;100.00;99182.63;15280586;19;20102;-49
2023/02/16 02:40:30;;;;;;;10.43;9.32;;;;;;;0.86;100.00;99183.56;15271864;19;20361;-52
2023/02/16 02:46:02;;;;;;;9.75;8.75;;;;;;;0.77;100.00;99192.88;15277879;19;20084;-52
2023/02/16 02:51:32;;;;;;;9.52;8.50;;;;;;;0.65;100.00;99198.84;15266571;19;20019;-51
2023/02/16 03:02:43;;;;;;;10.60;8.60;;;;;;;0.35;100.00;99192.38;15275157;19;20010;-51
2023/02/16 03:08:16;;;;;;;9.40;8.50;;;;;;;0.31;100.00;99185.50;15268738;19;20258;-54
2023/02/16 03:13:44;;;;;;;12.05;9.20;;;;;;;0.22;100.00;99181.50;15271111;19;20491;-49
2023/02/16 03:30:31;;;;;;;11.40;9.60;;;;;;;0.24;100.00;99176.13;15270877;19;20021;-50
2023/02/16 03:35:59;;;;;;;12.13;10.75;;;;;;;0.26;100.00;99177.78;15274418;19;20356;-53
2023/02/16 03:41:30;;;;;;;13.20;10.73;;;;;;;0.29;100.00;99180.25;15267349;19;20407;-53
2023/02/16 03:46:55;;;;;;;12.00;10.43;;;;;;;0.29;100.00;99177.59;15266539;19;20031;-51
2023/02/16 03:52:22;;;;;;;13.02;11.43;;;;;;;0.27;100.00;99187.44;15270683;19;20019;-51
2023/02/16 03:57:47;;;;;;;12.30;11.00;;;;;;;0.27;100.00;99192.75;15267569;19;20390;-49
2023/02/16 04:03:12;;;;;;;13.63;11.60;;;;;;;0.30;100.00;99200.53;15266162;19;20029;-50
2023/02/16 04:08:40;;;;;;;12.82;11.43;;;;;;;0.33;100.00;99203.97;15269267;19;20023;-52
2023/02/16 04:14:05;;;;;;;13.93;11.75;;;;;;;0.31;100.00;99212.00;15266275;19;20027;-49
2023/02/16 04:19:30;;;;;;;12.23;10.93;;;;;;;0.29;100.00;99205.91;15264988;19;20046;-53
2023/02/16 04:24:57;;;;;;;13.50;11.57;;;;;;;0.24;100.00;99206.16;15268651;19;20014;-51
2023/02/16 04:30:24;;;;;;;12.82;11.30;;;;;;;0.23;100.00;99204.44;15272955;19;20532;-49
2023/02/16 04:35:49;;;;;;;12.35;10.82;;;;;;;0.20;100.00;99186.03;15297976;19;20067;-54
2023/02/16 04:41:17;;;;;;;12.35;11.05;;;;;;;0.17;100.00;99187.97;15301228;19;20052;-54
2023/02/16 04:46:41;;;;;;;13.98;11.88;;;;;;;0.13;100.00;99192.56;15278368;19;20074;-52
2023/02/16 04:52:06;;;;;;;13.48;11.65;;;;;;;0.13;100.00;99190.78;15277852;19;20445;-49
2023/02/16 04:57:34;;;;;;;13.43;11.70;;;;;;;0.15;100.00;99185.41;15271158;19;20017;-51
2023/02/16 05:02:59;;;;;;;13.65;11.85;;;;;;;0.24;100.00;99186.72;15277148;19;20040;-50
2023/02/16 05:08:23;;;;;;;14.68;12.38;;;;;;;0.26;100.00;99183.09;15272223;19;20027;-49
2023/02/16 05:19:27;;;;;;;12.90;11.18;;;;;;;0.35;100.00;99181.75;15265804;19;20018;-51
2023/02/16 05:24:52;;;;;;;12.63;11.32;;;;;;;0.40;100.00;99186.84;15275524;19;20018;-49
2023/02/16 05:30:21;;;;;;;12.55;10.80;;;;;;;0.38;100.00;99181.59;15270910;19;20025;-53
2023/02/16 05:35:46;;;;;;;14.00;11.60;;;;;;;0.38;100.00;99183.41;15273407;19;20014;-51
2023/02/16 05:41:22;;;;;;;13.13;11.27;;;;;;;0.37;100.00;99176.38;15271040;19;20811;-48
2023/02/16 05:46:50;;;;;;;13.23;11.05;;;;;;;0.33;100.00;99180.97;15274035;19;20111;-51
2023/02/16 05:52:15;;;;;;;12.90;11.40;;;;;;;0.30;100.00;99178.47;15267645;19;20021;-49
2023/02/16 05:57:40;;;;;;;13.75;11.73;;;;;;;0.26;100.00;99182.22;15270895;19;20015;-50
2023/02/16 06:03:07;;;;;;;13.23;11.45;;;;;;;0.24;100.00;99190.25;15273588;19;20022;-52
2023/02/16 06:08:33;;;;;;;13.02;11.65;;;;;;;0.22;100.00;99181.50;15268003;19;20030;-50
2023/02/16 06:13:58;;;;;;;15.05;12.23;;;;;;;0.20;100.00;99180.72;15272843;19;20480;-50
2023/02/16 06:19:26;;;;;;;13.95;11.20;;;;;;;0.20;100.00;99178.06;15267156;19;20508;-50
2023/02/16 06:24:50;;;;;;;13.57;11.68;;;;;;;0.17;100.00;99178.25;15265341;19;20048;-50
2023/02/16 06:30:16;;;;;;;13.25;11.25;;;;;;;0.14;100.00;99189.00;15265512;19;20027;-52
2023/02/16 06:35:43;;;;;;;13.82;11.50;;;;;;;0.12;100.00;99185.56;15266881;19;20116;-51
2023/02/16 06:41:29;;;;;;;15.10;12.27;;;;;;;0.09;100.00;99175.97;15267008;19;20014;-49
2023/02/16 06:46:55;;;;;;;12.15;10.77;;;;;;;0.09;100.00;99164.50;15268175;19;20023;-49
2023/02/16 06:52:23;;;;;;;13.75;11.25;;;;;;;0.12;100.00;99177.59;15260583;19;20018;-50
2023/02/16 06:57:48;;;;;;;12.75;11.43;;;;;;;0.21;100.00;99184.25;15262112;19;20477;-50
2023/02/16 07:03:13;;;;;;;14.25;11.70;;;;;;;0.22;100.00;99186.81;15263831;19;20010;-48
2023/02/16 07:08:41;;;;;;;14.10;11.35;;;;;;;0.26;100.00;99182.22;15256563;19;20015;-49
2023/02/16 07:14:05;;;;;;;13.15;11.48;;;;;;;0.30;100.00;99179.31;15267568;19;20679;-50
2023/02/16 07:19:31;;;;;;;12.48;11.00;;;;;;;0.44;100.00;99175.13;15261900;19;20026;-51
2023/02/16 07:24:59;;;;;;;14.40;10.63;;;;;;;0.58;100.00;99175.28;15266718;19;20025;-53
2023/02/16 07:30:25;;;;;;;12.35;11.02;;;;;;;0.72;100.00;99176.34;15258348;19;20022;-53
2023/02/16 07:35:50;;;;;;;10.88;9.55;;;;;;;0.80;100.00;99181.25;15262417;19;20032;-49
2023/02/16 07:41:18;;;;;;;12.27;10.48;;;;;;;0.88;100.00;99184.34;15255520;19;20014;-51
2023/02/16 07:46:50;;;;;;;13.15;10.68;;;;;;;0.97;100.00;99180.38;15261520;19;20014;-52
2023/02/16 07:52:15;;;;;;;12.32;11.02;;;;;;;1.10;100.00;99170.81;15256030;19;20025;-49
2023/02/16 07:57:43;;;;;;;14.43;11.68;;;;;;;1.19;100.00;99172.97;15251665;19;20014;-49
2023/02/16 08:03:08;;;;;;;11.45;9.82;;;;;;;1.28;100.00;99170.75;15269715;19;20025;-49
2023/02/16 08:08:32;;;;;;;12.07;10.60;;;;;;;1.35;100.00;99178.28;15265803;19;20029;-49
2023/02/16 08:14:00;;;;;;;11.80;10.02;;;;;;;1.48;100.00;99178.47;15277551;19;20048;-54
2023/02/16 08:19:24;;;;;;;10.45;9.35;;;;;;;1.68;100.00;99165.88;15274935;19;20098;-53
2023/02/16 08:24:50;;;;;;;9.55;8.57;;;;;;;1.91;100.00;99169.03;15279461;19;20109;-56
2023/02/16 08:30:19;;;;;;;11.60;9.00;;;;;;;2.09;100.00;99165.28;15267812;19;20843;-49
2023/02/16 08:35:44;;;;;;;9.13;8.15;;;;;;;2.34;100.00;99161.19;15279754;19;20014;-49
2023/02/16 08:41:09;;;;;;;12.90;8.45;;;;;;;2.52;100.00;99161.06;15276861;19;20016;-49
2023/02/16 08:46:38;;;;;;;10.18;8.23;;;;;;;2.69;100.00;99166.22;15277895;19;20086;-49
2023/02/16 08:52:05;;;;;;;8.40;7.45;;;;;;;2.89;100.00;99166.78;15275187;19;20082;-49
2023/02/16 08:57:30;;;;;;;8.82;7.82;;;;;;;3.08;100.00;99172.72;15277509;19;20044;-48
2023/02/16 09:02:57;;;;;;;8.80;7.90;;;;;;;3.30;100.00;99176.69;15273902;19;20132;-49
2023/02/16 09:08:23;;;;;;;8.95;7.97;;;;;;;3.50;100.00;99158.59;15272836;19;20044;-50
2023/02/16 09:13:48;;;;;;;7.90;7.10;;;;;;;3.67;100.00;99170.81;15272050;19;20521;-50
2023/02/16 09:19:17;;;;;;;10.60;9.18;;;;;;;3.80;100.00;99171.75;15273096;19;20019;-53
2023/02/16 09:24:41;;;;;;;11.13;9.70;;;;;;;3.87;100.00;99182.88;15275968;19;20022;-50
2023/02/16 09:30:08;;;;;;;9.95;8.73;;;;;;;3.89;100.00;99183.63;15270134;19;20022;-53
2023/02/16 09:35:36;;;;;;;12.82;8.80;;;;;;;3.88;100.00;99187.25;15272555;19;20494;-50
2023/02/16 09:41:08;;;;;;;9.80;8.40;;;;;;;3.96;100.00;99179.59;15273743;19;20022;-50
2023/02/16 09:46:35;;;;;;;8.98;8.07;;;;;;;4.13;100.00;99173.16;15274800;19;20018;-53
2023/02/16 09:52:12;;;;;;;9.13;7.70;;;;;;;4.25;100.00;99168.81;15272013;19;20014;-51
2023/02/16 09:57:55;;;;;;;9.15;7.70;;;;;;;4.50;100.00;99161.84;15271583;19;20019;-50
2023/02/16 10:03:37;;;;;;;7.72;6.80;;;;;;;4.97;100.00;99159.50;15253569;19;20043;-52
2023/02/16 10:09:08;;;;;;;7.65;6.72;;;;;;;5.32;100.00;99153.47;15264597;19;20019;-53
2023/02/16 10:14:40;;;;;;;8.20;5.97;;;;;;;5.57;100.00;99145.53;15271225;19;20082;-52
2023/02/16 10:20:08;;;;;;;7.03;6.32;;;;;;;5.82;100.00;99144.56;15268426;19;20018;-51
2023/02/16 10:25:45;;;;;;;7.45;6.30;;;;;;;6.01;100.00;99146.78;15273394;19;20026;-53
2023/02/16 10:31:11;;;;;;;7.95;6.30;;;;;;;6.26;100.00;99142.25;15273724;19;20011;-50
2023/02/16 10:36:52;;;;;;;7.18;6.25;;;;;;;6.46;100.00;99133.56;15272297;19;20039;-53
2023/02/16 10:42:29;;;;;;;8.27;6.80;;;;;;;6.66;100.00;99143.72;15265875;19;20542;-54
2023/02/16 10:47:54;;;;;;;8.23;6.50;;;;;;;6.90;100.00;99123.06;15269776;19;20022;-51
2023/02/16 10:53:32;;;;;;;8.45;6.10;;;;;;;7.13;100.00;99122.19;15269306;19;20013;-50
2023/02/16 10:59:02;;;;;;;6.78;6.05;;;;;;;7.35;100.00;99114.13;15268210;19;20015;-52
2023/02/16 11:04:41;;;;;;;7.00;5.93;;;;;;;7.58;100.00;99108.78;15272394;19;20036;-50
2023/02/16 11:10:23;;;;;;;6.97;5.88;;;;;;;7.80;100.00;99104.31;15263803;19;20017;-51
2023/02/16 11:15:50;;;;;;;7.13;6.00;;;;;;;8.11;100.00;99099.06;15265974;19;20102;-51
2023/02/16 11:21:15;;;;;;;6.70;5.43;;;;;;;8.32;100.00;99094.56;15268419;19;20969;-47
2023/02/16 11:26:40;;;;;;;8.25;5.40;;;;;;;8.48;100.00;99078.03;15262371;19;20086;-49
2023/02/16 11:32:13;;;;;;;6.00;5.35;;;;;;;8.60;100.00;99083.31;15266026;19;20021;-50
2023/02/16 11:37:40;;;;;;;6.57;5.30;;;;;;;8.78;100.00;99080.88;15270068;19;20018;-52
2023/02/16 11:43:12;;;;;;;5.78;5.20;;;;;;;8.89;100.00;99083.47;15274461;19;20015;-49
2023/02/16 11:48:40;;;;;;;6.70;5.38;;;;;;;9.05;100.00;99076.75;15277695;19;20016;-51
2023/02/16 11:54:09;;;;;;;6.05;5.32;;;;;;;9.22;100.00;99073.44;15274111;19;20035;-52
2023/02/16 11:59:37;;;;;;;6.07;5.47;;;;;;;9.47;100.00;99065.00;15267304;19;20583;-49
2023/02/16 12:05:30;;;;;;;7.68;5.20;;;;;;;9.66;100.00;99053.44;15280860;19;20018;-49
2023/02/16 12:11:24;;;;;;;6.40;4.90;;;;;;;9.91;100.00;99040.41;15275932;19;20029;-49
2023/02/16 12:16:57;;;;;;;6.53;5.80;;;;;;;10.07;100.00;99043.38;15270020;19;20658;-51
2023/02/16 12:22:34;;;;;;;6.18;5.38;;;;;;;10.16;100.00;99037.16;15278950;19;20017;-49
2023/02/16 12:28:11;;;;;;;6.00;5.22;;;;;;;10.43;100.00;99027.47;15273196;19;20255;-52
2023/02/16 12:33:46;;;;;;;8.20;5.80;;;;;;;10.50;100.00;99018.81;15274124;19;20021;-50
2023/02/16 12:39:27;;;;;;;6.35;5.13;;;;;;;10.70;100.00;99009.69;15272709;19;20069;-48
2023/02/16 12:44:56;;;;;;;6.57;5.27;;;;;;;10.87;100.00;99020.69;15273697;19;20025;-51
2023/02/16 12:50:28;;;;;;;6.47;5.60;;;;;;;11.01;100.00;99011.25;15263584;19;20021;-52
2023/02/16 12:56:00;;;;;;;6.90;5.30;;;;;;;11.14;100.00;99014.44;15276099;19;20006;-47
2023/02/16 13:01:29;;;;;;;6.03;5.28;;;;;;;11.29;100.00;99009.38;15273737;19;20799;-48
2023/02/16 13:07:02;;;;;;;6.18;5.47;;;;;;;11.33;100.00;99016.19;15272335;19;20025;-52
2023/02/16 13:12:37;;;;;;;6.68;5.03;;;;;;;11.36;100.00;99002.38;15273539;19;20014;-49
2023/02/16 13:18:06;;;;;;;7.05;5.60;;;;;;;11.56;100.00;99003.09;15271854;19;20019;-49
2023/02/16 13:23:45;;;;;;;6.07;5.22;;;;;;;11.57;100.00;99001.25;15270578;19;20503;-49
2023/02/16 13:29:41;;;;;;;7.32;5.70;;;;;;;11.65;100.00;98995.94;15270068;19;20025;-48
2023/02/16 13:35:21;;;;;;;7.07;6.38;;;;;;;11.60;100.00;99000.09;15271603;19;20541;-49
2023/02/16 13:41:11;;;;;;;8.48;6.53;;;;;;;11.57;100.00;99012.88;15267539;19;20006;-52
2023/02/16 13:46:41;;;;;;;8.45;6.70;;;;;;;11.59;100.00;99006.50;15271837;19;20564;-51
2023/02/16 13:52:09;;;;;;;7.20;6.50;;;;;;;11.58;100.00;99002.97;15265576;19;20018;-50
2023/02/16 13:58:09;;;;;;;9.77;7.20;;;;;;;11.64;100.00;99002.31;15269642;19;20015;-51
2023/02/16 14:03:40;;;;;;;8.45;6.88;;;;;;;11.80;100.00;99006.19;15272530;19;20130;-51
2023/02/16 14:09:53;;;;;;;7.97;7.18;;;;;;;11.67;100.00;99004.72;15267125;19;20014;-52
2023/02/16 14:15:21;;;;;;;9.57;7.10;;;;;;;11.25;100.00;99007.97;15268671;19;20081;-50
2023/02/16 14:20:48;;;;;;;7.72;6.93;;;;;;;11.06;100.00;99004.41;15267553;19;20010;-55
2023/02/16 14:26:14;;;;;;;7.50;6.50;;;;;;;10.88;100.00;99006.19;15265700;19;20015;-55
2023/02/16 14:31:47;;;;;;;7.22;6.53;;;;;;;10.78;100.00;99011.63;15271068;19;20082;-54
2023/02/16 14:37:29;;;;;;;7.28;6.05;;;;;;;10.78;100.00;99007.09;15270753;19;20022;-49
2023/02/16 14:43:03;;;;;;;7.55;6.43;;;;;;;10.79;100.00;99005.25;15268452;19;20025;-50
2023/02/16 14:48:48;;;;;;;7.82;5.80;;;;;;;10.77;100.00;99013.47;15264304;19;20028;-49
2023/02/16 14:54:49;;;;;;;8.98;6.07;;;;;;;10.86;100.00;99013.59;15267948;19;20701;-49
2023/02/16 15:00:30;;;;;;;4.93;4.40;;;;;;;10.98;100.00;99022.31;15259138;19;20028;-52
2023/02/16 15:06:04;;;;;;;5.10;3.90;;;;;;;11.02;99.72;99016.47;15266170;19;20094;-48
2023/02/16 15:12:20;;;;;;;3.25;2.72;;;;;;;11.12;84.85;99005.66;15264191;19;20569;-48
2023/02/16 15:17:35;;;;;;;3.45;2.67;;;;;;;11.02;91.85;99008.41;15265275;19;20019;-51
2023/02/16 15:23:02;;;;;;;4.10;2.90;;;;;;;10.75;100.00;99001.16;15266963;19;20017;-50
2023/02/16 15:28:32;;;;;;;3.38;2.70;;;;;;;10.58;100.00;98990.16;15261737;19;20360;-51
2023/02/16 15:33:59;;;;;;;3.30;2.90;;;;;;;10.38;100.00;98975.91;15263006;19;20730;-52
2023/02/16 15:39:34;;;;;;;5.00;2.67;;;;;;;10.21;100.00;98971.22;15262376;19;20500;-47
2023/02/16 15:45:36;;;;;;;2.92;2.40;;;;;;;9.99;100.00;98975.94;15261498;19;20015;-50
2023/02/16 15:51:12;;;;;;;3.97;2.70;;;;;;;9.83;100.00;98963.06;15263647;19;20021;-49
2023/02/16 15:56:46;;;;;;;3.25;2.78;;;;;;;9.74;100.00;98959.41;15264429;19;20482;-49
2023/02/16 16:02:17;;;;;;;3.20;2.70;;;;;;;9.44;100.00;98958.56;15260051;19;20599;-47
2023/02/16 16:07:44;;;;;;;4.93;3.33;;;;;;;9.32;100.00;98970.44;15261038;19;20017;-50
2023/02/16 16:13:16;;;;;;;3.65;2.97;;;;;;;9.23;100.00;98967.56;15259812;19;20083;-49
2023/02/16 16:18:53;;;;;;;5.68;3.10;;;;;;;9.04;100.00;98968.41;15260833;19;20344;-48
2023/02/16 16:24:32;;;;;;;4.55;3.30;;;;;;;8.90;100.00;98975.00;15271556;19;20483;-48
2023/02/16 16:29:57;;;;;;;6.53;3.28;;;;;;;8.88;100.00;98974.28;15272072;19;20011;-48
2023/02/16 16:35:36;;;;;;;4.10;3.40;;;;;;;8.78;100.00;98970.72;15269974;19;20360;-50
2023/02/16 16:41:04;;;;;;;4.45;3.88;;;;;;;8.66;100.00;98980.75;15274847;19;20029;-50
2023/02/16 16:46:31;;;;;;;4.63;3.90;;;;;;;8.50;100.00;98975.88;15276490;19;20043;-52
2023/02/16 16:52:02;;;;;;;5.57;4.50;;;;;;;8.38;100.00;98976.91;15276751;19;20013;-53
2023/02/16 16:57:28;;;;;;;5.97;4.77;;;;;;;8.26;100.00;98985.03;15275175;19;20486;-55
2023/02/16 17:02:54;;;;;;;6.07;4.90;;;;;;;8.20;100.00;98988.22;15275392;19;20090;-53
2023/02/16 17:08:21;;;;;;;5.60;5.00;;;;;;;8.12;100.00;98988.88;15265310;19;20036;-51
2023/02/16 17:13:46;;;;;;;6.38;5.30;;;;;;;8.07;100.00;99001.00;15270012;19;20495;-52
2023/02/16 17:19:13;;;;;;;5.70;4.82;;;;;;;7.94;100.00;98998.53;15269885;19;20021;-54
2023/02/16 17:24:41;;;;;;;5.80;5.10;;;;;;;7.78;100.00;99023.94;15277772;19;20018;-50
2023/02/16 17:30:07;;;;;;;6.90;4.85;;;;;;;7.78;100.00;99029.31;15267149;19;20365;-51
2023/02/16 17:35:33;;;;;;;5.63;5.03;;;;;;;7.75;100.00;99029.59;15268519;19;20044;-49
2023/02/16 17:41:00;;;;;;;6.50;5.35;;;;;;;7.74;100.00;99027.03;15266998;19;20025;-50
2023/02/16 17:46:33;;;;;;;5.65;5.03;;;;;;;7.66;100.00;99020.47;15270149;19;20028;-49
2023/02/16 17:51:57;;;;;;;5.70;5.15;;;;;;;7.59;100.00;99019.28;15267446;19;20082;-49
2023/02/16 17:57:25;;;;;;;5.78;5.18;;;;;;;7.56;100.00;99030.28;15269002;19;20019;-50
2023/02/16 18:02:50;;;;;;;6.15;5.55;;;;;;;7.49;100.00;99024.56;15271349;19;20019;-49
2023/02/16 18:08:16;;;;;;;5.90;5.30;;;;;;;7.44;100.00;99033.97;15265821;19;20739;-54
2023/02/16 18:13:43;;;;;;;6.65;5.80;;;;;;;7.37;100.00;99029.09;15262294;19;20022;-52
2023/02/16 18:19:08;;;;;;;8.35;5.88;;;;;;;7.33;100.00;99043.75;15262828;19;20025;-53
2023/02/16 18:24:33;;;;;;;6.97;6.28;;;;;;;7.25;100.00;99043.50;15268104;19;20085;-52
2023/02/16 18:29:54;;;;;;;7.45;6.50;;;;;;;7.14;100.00;99039.03;15265773;19;20026;-51
2023/02/16 18:35:20;;;;;;;7.07;6.37;;;;;;;7.06;100.00;99022.69;15265912;19;20021;-53
2023/02/16 18:40:45;;;;;;;8.07;7.07;;;;;;;6.95;100.00;99039.66;15264532;19;20048;-53
2023/02/16 18:46:20;;;;;;;7.50;6.80;;;;;;;6.86;100.00;99043.06;15258922;19;20014;-55
2023/02/16 18:51:45;;;;;;;7.95;7.15;;;;;;;6.82;100.00;99044.28;15267135;19;20499;-53
2023/02/16 18:57:10;;;;;;;8.23;7.38;;;;;;;6.69;100.00;99045.25;15265799;19;20592;-55
2023/02/16 19:02:39;;;;;;;10.05;8.10;;;;;;;6.52;100.00;99053.75;15268718;19;20014;-54
2023/02/16 19:08:04;;;;;;;9.48;8.43;;;;;;;6.46;100.00;99045.22;15266834;19;20018;-55
2023/02/16 19:13:28;;;;;;;8.38;7.57;;;;;;;6.36;100.00;99049.59;15271312;19;20021;-48
2023/02/16 19:18:56;;;;;;;8.95;8.05;;;;;;;6.31;100.00;99038.38;15260430;19;20021;-54
2023/02/16 19:24:21;;;;;;;9.82;8.82;;;;;;;6.27;100.00;99031.59;15270454;19;20024;-53
2023/02/16 19:29:46;;;;;;;9.98;8.88;;;;;;;6.21;100.00;99021.34;15261511;19;20024;-49
2023/02/16 19:35:14;;;;;;;9.73;8.68;;;;;;;6.14;100.00;99016.47;15265075;19;20027;-51
2023/02/16 19:40:38;;;;;;;9.73;8.70;;;;;;;6.11;100.00;99005.16;15264205;19;20022;-51
2023/02/16 19:46:11;;;;;;;10.52;9.50;;;;;;;6.09;100.00;99002.59;15265620;19;20014;-53
2023/02/16 19:51:38;;;;;;;10.43;9.40;;;;;;;6.02;100.00;99004.03;15260018;19;20025;-52
2023/02/16 19:57:04;;;;;;;10.23;9.23;;;;;;;5.98;100.00;99005.19;15259883;19;20406;-55
2023/02/16 20:02:28;;;;;;;10.77;9.73;;;;;;;5.94;100.00;98998.41;15282857;19;20030;-52
2023/02/16 20:07:57;;;;;;;10.65;9.55;;;;;;;5.91;100.00;98983.44;15279385;19;20007;-53
2023/02/16 20:13:21;;;;;;;10.73;9.63;;;;;;;5.93;100.00;98999.38;15283247;19;20022;-52
2023/02/16 20:18:47;;;;;;;10.15;9.05;;;;;;;5.94;100.00;98987.72;15277042;19;20019;-54
2023/02/16 20:24:15;;;;;;;12.90;9.18;;;;;;;5.97;100.00;98998.16;15282257;19;20014;-55
2023/02/16 20:29:40;;;;;;;10.85;9.02;;;;;;;6.03;100.00;98992.38;15318077;19;20023;-57
2023/02/16 20:35:06;;;;;;;10.65;9.57;;;;;;;6.05;100.00;98985.09;15287617;19;20115;-55
2023/02/16 20:40:37;;;;;;;10.07;9.18;;;;;;;6.04;100.00;98980.72;15273613;19;20459;-50
2023/02/16 20:46:11;;;;;;;10.70;9.60;;;;;;;6.01;100.00;98981.78;15273574;19;20094;-52
2023/02/16 20:51:37;;;;;;;11.02;9.52;;;;;;;5.99;100.00;98974.81;15287994;19;20028;-50
2023/02/16 20:57:05;;;;;;;11.00;9.73;;;;;;;6.03;100.00;98960.28;15270528;19;20014;-50
2023/02/16 21:02:44;;;;;;;11.15;9.60;;;;;;;6.05;100.00;98969.03;15269515;19;20756;-50
2023/02/16 21:08:09;;;;;;;11.90;10.18;;;;;;;6.05;100.00;98957.47;15271430;19;20037;-51
2023/02/16 21:13:36;;;;;;;11.02;9.55;;;;;;;6.00;100.00;98960.50;15273386;19;20017;-51
2023/02/16 21:19:02;;;;;;;11.13;9.68;;;;;;;5.97;100.00;98944.66;15270502;19;20022;-52
2023/02/16 21:24:40;;;;;;;12.05;9.95;;;;;;;5.97;100.00;98933.97;15270239;19;20026;-49
2023/02/16 21:30:08;;;;;;;12.63;9.60;;;;;;;5.99;100.00;98924.91;15270434;19;20024;-49
2023/02/16 21:35:34;;;;;;;10.73;9.30;;;;;;;6.02;100.00;98921.13;15271550;19;20034;-48
2023/02/16 21:46:47;;;;;;;10.10;9.18;;;;;;;6.05;100.00;98920.91;15268718;19;20022;-51
2023/02/16 21:52:11;;;;;;;10.65;9.65;;;;;;;6.09;100.00;98918.81;15271416;19;20020;-49
2023/02/16 21:57:36;;;;;;;10.23;9.23;;;;;;;6.16;100.00;98906.66;15263715;19;20364;-53
2023/02/16 22:03:03;;;;;;;10.30;8.95;;;;;;;6.22;100.00;98911.53;15272835;19;20036;-52
2023/02/16 22:08:29;;;;;;;9.65;8.65;;;;;;;6.26;100.00;98901.44;15268680;19;20025;-51
2023/02/16 22:13:56;;;;;;;9.88;8.88;;;;;;;6.25;100.00;98908.59;15276224;19;20491;-50
2023/02/16 22:19:26;;;;;;;9.52;8.43;;;;;;;6.25;100.00;98900.56;15269557;19;20034;-47
2023/02/16 22:24:51;;;;;;;9.68;8.68;;;;;;;6.28;100.00;98904.84;15273007;19;20349;-51
2023/02/16 22:30:20;;;;;;;8.82;8.02;;;;;;;6.30;100.00;98894.84;15261170;19;20023;-50
2023/02/16 22:35:48;;;;;;;9.10;8.15;;;;;;;6.30;100.00;98894.84;15265210;19;20019;-47
2023/02/16 22:41:16;;;;;;;9.05;8.15;;;;;;;6.30;100.00;98894.84;15267424;19;20016;-48
2023/02/16 22:46:49;;;;;;;9.63;8.63;;;;;;;6.30;100.00;98897.53;15265666;19;20018;-48
2023/02/16 22:52:17;;;;;;;9.10;8.20;;;;;;;6.30;100.00;98892.16;15268961;19;20025;-49
2023/02/16 22:57:55;;;;;;;10.25;8.82;;;;;;;6.28;100.00;98878.09;15265732;19;20489;-52
2023/02/16 23:03:21;;;;;;;10.18;9.15;;;;;;;6.30;100.00;98879.66;15251130;19;20482;-46
2023/02/16 23:08:49;;;;;;;10.30;8.52;;;;;;;6.32;100.00;98872.38;15266333;19;20022;-46
2023/02/16 23:14:17;;;;;;;8.80;7.90;;;;;;;6.34;100.00;98853.50;15265541;19;20029;-46
2023/02/16 23:19:46;;;;;;;9.85;8.18;;;;;;;6.35;100.00;98843.66;15267512;19;20015;-49
2023/02/16 23:30:53;;;;;;;8.32;7.47;;;;;;;6.40;100.00;98846.78;15264762;19;20029;-45
2023/02/16 23:36:18;;;;;;;8.77;7.65;;;;;;;6.41;100.00;98849.34;15271029;19;20023;-46
2023/02/16 23:41:45;;;;;;;8.07;7.28;;;;;;;6.45;100.00;98836.59;15278098;19;20092;-47
2023/02/16 23:47:10;;;;;;;8.95;7.75;;;;;;;6.46;100.00;98825.75;15280453;19;20388;-45
2023/02/16 23:52:34;;;;;;;9.95;7.63;;;;;;;6.47;100.00;98822.09;15276523;19;20363;-50
2023/02/16 23:58:01;;;;;;;8.95;7.32;;;;;;;6.54;100.00;98806.38;15273562;19;20082;-51
